logo
Search for airport 
image banner adimage banner adimage banner ad
image banner ad

MRBP - Barra De Parismina

Located in Pococi, Costa Rica

ICAO - MRBP, IATA -

Data provided by Airmate  

General information

Coordinates: N10°18'9" W83°20'45"
Elevation is 56 feet MSL.
 
View others Airports in Limon

Operational data

Special qualification required
Current time UTC:
Current local time:
Weather at : MRLM - Limon Intl ( 52 km )
METAR: MRLM 172000Z 01007KT CAVOK 31/26 A2978
TAF: MRLM 171718Z 1718/1818 04006KT 9999 FEW020 TX31/1720Z TN23/1811Z BECMG 1800/1803 24005KT TEMPO 1804/1808 RA BKN015 BECMG 1815/1818 06007KT
View NOTAMs / SUP AIP / TFR affecting this airport [VIEW]
Communications frequencies: [VIEW]

Runways:

RWY identifierQFULength (ft)Width (ft)SurfaceLDA (ft)
14295333UNK
32295333UNK

Airport contact information

Address: Pococi Costa Rica

Satellite view of MRBP